This is the latest recevied weather packets stored in our database for station/object NI4CE-10. If no packets are shown the sender has not sent any weather packets the latest 1 day(s).
| Time | Temp. | Humidity | Pressure | Rain* | Wind** | Luminosity | Snow |
|---|---|---|---|---|---|---|---|
| 1778026545 | 25.56° C | 100% | 1017.4 hPa | 0 mm | 0 m/s | - | - |
| 1778026245 | 25.56° C | 100% | 1017.3 hPa | 0 mm | 0.45 m/s, 315° | - | - |
| 1778026040 | 26.11° C | 100% | 1017 hPa | 0 mm | 1.79 m/s, 7° | - | - |
| 1778025945 | 25.56° C | 100% | 1017.2 hPa | 0 mm | 1.34 m/s, 337° | - | - |
| 1778025645 | 26.11° C | 100% | 1017 hPa | 0 mm | 0.89 m/s, 319° | - | - |
| 1778025468 | 26.11° C | 100% | 1017 hPa | 0 mm | 0.89 m/s, 336° | - | - |
| 1778025345 | 26.11° C | 100% | 1017 hPa | 0 mm | 1.79 m/s, 7° | - | - |
| 1778025190 | 26.11° C | 100% | 1017 hPa | 0 mm | 0.89 m/s, 336° | - | - |
| 1778025045 | 26.11° C | 100% | 1017 hPa | 0 mm | 0.89 m/s, 336° | - | - |
| 1778024963 | 26.67° C | 100% | 1016.9 hPa | 0 mm | 1.34 m/s, 358° | - | - |
| 1778024892 | 26.67° C | 100% | 1016.9 hPa | 0 mm | 1.34 m/s, 358° | - | - |
| 1778024745 | 26.67° C | 100% | 1016.9 hPa | 0 mm | 1.34 m/s, 358° | - | - |
| 1778024729 | 26.67° C | 100% | 1016.7 hPa | 0 mm | 1.79 m/s, 350° | - | - |
| 1778024697 | 26.67° C | 100% | 1016.7 hPa | 0 mm | 1.79 m/s, 350° | - | - |
| 1778024445 | 26.67° C | 100% | 1016.7 hPa | 0 mm | 1.79 m/s, 350° | - | - |
| 1778024392 | 27.22° C | 100% | 1016.7 hPa | 0 mm | 0 m/s | - | - |
| 1778024145 | 27.22° C | 100% | 1016.7 hPa | 0 mm | 0 m/s | - | - |
| 1778024097 | 27.78° C | 100% | 1016.8 hPa | 0 mm | 0.45 m/s, 1° | - | - |
| 1778024009 | 27.78° C | 100% | 1016.8 hPa | 0 mm | 0.45 m/s, 1° | - | - |
| 1778023845 | 27.78° C | 100% | 1016.8 hPa | 0 mm | 0.45 m/s, 1° | - | - |
| 1778023826 | 27.78° C | 100% | 1016.7 hPa | 0 mm | 1.79 m/s, 7° | - | - |
| 1778023718 | 27.78° C | 100% | 1016.7 hPa | 0 mm | 1.79 m/s, 7° | - | - |
| 1778023545 | 27.78° C | 100% | 1016.7 hPa | 0 mm | 1.79 m/s, 7° | - | - |
| 1778023397 | 28.33° C | 100% | 1016.7 hPa | 0 mm | 2.68 m/s, 337° | - | - |
| 1778023245 | 28.33° C | 100% | 1016.7 hPa | 0 mm | 2.68 m/s, 337° | - | - |
* Rain latest hour (hover to see other rain measurements)
** Current wind speed in m/s (hover to see current wind gust speed)